Aviation Digital Data Service (ADDS)

Output produced by METARs form (1756 UTC 19 October 2017)
found at http://www.aviationweather.gov/adds/metars/
 
KALB 191720Z 1918/2018 19015G22KT P6SM SKC 
     FM200100 20008KT P6SM SCT060 BKN250 
     FM200500 27006KT P6SM SCT250 
     FM201400 31010KT P6SM SKC